Time;durP1;ratioP1;P1;durP2;ratioP2;P2;SDS_P1;SDS_P2;PMS_P1;PMS_P2;Temp;Humidity;BMP_temperature;BMP_pressure;BME280_temperature;BME280_humidity;BME280_pressure;Samples;Min_cycle;Max_cycle;Signal;HPM_P1;HPM_P2
2022/01/29 00:01:16;;;;;;;5.60;2.42;;;;;;;17.51;49.67;102789.19;5024606;28;20159;-80
2022/01/29 00:03:42;;;;;;;6.82;2.58;;;;;;;17.51;49.43;102787.50;5008185;28;20022;-81
2022/01/29 00:06:08;;;;;;;5.65;2.35;;;;;;;17.51;49.44;102779.69;5008266;28;20033;-81
2022/01/29 00:08:33;;;;;;;4.63;2.22;;;;;;;17.51;49.73;102786.59;4991899;28;20033;-81
2022/01/29 00:11:09;;;;;;;3.92;2.10;;;;;;;17.50;49.63;102793.53;4991901;28;20030;-81
2022/01/29 00:13:34;;;;;;;6.97;2.45;;;;;;;17.50;49.71;102772.72;5009153;28;20034;-81
2022/01/29 00:16:00;;;;;;;4.32;2.28;;;;;;;17.50;49.55;102771.84;5007413;28;20436;-81
2022/01/29 00:18:28;;;;;;;4.55;2.17;;;;;;;17.50;49.61;102769.22;4992386;28;20030;-81
2022/01/29 00:20:54;;;;;;;5.72;2.55;;;;;;;17.50;49.75;102769.22;4992375;28;20025;-81
2022/01/29 00:23:19;;;;;;;4.15;2.22;;;;;;;17.50;49.53;102769.22;5023309;28;20030;-81
2022/01/29 00:25:44;;;;;;;4.40;2.40;;;;;;;17.50;49.74;102771.84;4991602;28;20026;-80
2022/01/29 00:28:11;;;;;;;3.85;2.10;;;;;;;17.49;49.54;102760.56;5007022;28;20116;-81
2022/01/29 00:30:40;;;;;;;4.43;2.38;;;;;;;17.48;49.52;102750.97;5006975;28;20041;-80
2022/01/29 00:33:05;;;;;;;4.68;2.40;;;;;;;17.49;49.49;102755.34;5007999;28;20025;-80
2022/01/29 00:35:31;;;;;;;4.30;2.30;;;;;;;17.48;49.58;102754.47;5006248;28;20062;-80
2022/01/29 00:37:56;;;;;;;3.20;2.10;;;;;;;17.48;49.52;102758.78;5022212;28;20021;-80
2022/01/29 00:40:22;;;;;;;3.78;2.20;;;;;;;17.49;49.59;102752.75;5006184;28;20118;-80
2022/01/29 00:42:48;;;;;;;3.65;2.00;;;;;;;17.48;49.53;102754.47;5005870;28;20026;-80
2022/01/29 00:45:14;;;;;;;3.80;2.03;;;;;;;17.48;49.61;102745.75;5021258;28;20033;-80
2022/01/29 00:47:40;;;;;;;3.78;2.17;;;;;;;17.48;49.47;102738.84;5021151;28;20123;-81
2022/01/29 00:50:06;;;;;;;5.25;2.30;;;;;;;17.48;49.53;102746.66;5003857;28;20062;-80
2022/01/29 00:52:31;;;;;;;4.50;2.15;;;;;;;17.48;49.59;102745.75;5022655;28;20026;-80
2022/01/29 00:54:56;;;;;;;5.38;2.40;;;;;;;17.48;49.49;102740.56;5005177;28;20469;-80
2022/01/29 00:57:22;;;;;;;4.38;2.20;;;;;;;17.48;49.51;102744.06;4988078;28;20033;-80
2022/01/29 00:59:47;;;;;;;4.57;2.40;;;;;;;17.47;49.58;102738.81;5021206;28;20053;-80
2022/01/29 01:02:13;;;;;;;5.55;2.25;;;;;;;17.48;49.58;102737.94;5005892;28;20392;-80
2022/01/29 01:04:39;;;;;;;3.47;1.83;;;;;;;17.48;49.34;102730.16;5004958;28;20052;-80
2022/01/29 01:07:09;;;;;;;4.28;2.20;;;;;;;17.48;49.59;102731.06;5023662;28;20022;-80
2022/01/29 01:09:35;;;;;;;4.18;2.10;;;;;;;17.48;49.53;102719.72;5021973;28;20472;-80
2022/01/29 01:12:00;;;;;;;3.15;2.00;;;;;;;17.47;49.52;102710.19;5022891;28;20061;-80
2022/01/29 01:14:26;;;;;;;4.18;2.28;;;;;;;17.46;49.38;102701.50;5021705;28;20022;-80
2022/01/29 01:16:51;;;;;;;4.53;2.13;;;;;;;17.47;49.71;102707.59;4997617;28;20029;-81
2022/01/29 01:19:16;;;;;;;3.70;2.00;;;;;;;17.47;49.59;102704.97;5017009;28;20137;-81
2022/01/29 01:21:42;;;;;;;3.45;2.10;;;;;;;17.47;49.44;102699.78;5032026;28;20034;-81
2022/01/29 01:24:07;;;;;;;4.70;2.17;;;;;;;17.46;49.52;102705.81;5012895;28;20036;-80
2022/01/29 01:26:33;;;;;;;3.20;2.00;;;;;;;17.47;49.62;102691.97;4994672;28;20026;-80
2022/01/29 01:28:59;;;;;;;6.10;2.45;;;;;;;17.46;49.25;102700.59;5008363;28;20037;-80
2022/01/29 01:31:24;;;;;;;3.58;2.10;;;;;;;17.46;49.38;102698.00;5008344;28;20030;-83
2022/01/29 01:33:50;;;;;;;3.95;2.10;;;;;;;17.45;49.56;102697.13;5031036;28;20032;-82
2022/01/29 01:36:19;;;;;;;4.28;2.20;;;;;;;17.46;49.70;102698.91;5015355;28;20026;-80
2022/01/29 01:38:50;;;;;;;3.67;1.77;;;;;;;17.46;49.40;102693.69;5010421;28;20120;-82
2022/01/29 01:41:21;;;;;;;3.75;2.00;;;;;;;17.46;49.47;102692.78;5010021;28;20029;-81
2022/01/29 01:43:46;;;;;;;3.60;2.13;;;;;;;17.45;49.61;102686.72;5007593;28;20026;-81
2022/01/29 01:46:12;;;;;;;3.65;1.77;;;;;;;17.45;49.56;102683.25;5006335;28;20099;-81
2022/01/29 01:48:37;;;;;;;3.95;2.00;;;;;;;17.45;49.50;102678.91;5023297;28;20113;-80
2022/01/29 01:51:03;;;;;;;4.47;2.17;;;;;;;17.45;49.47;102678.03;5004783;28;20057;-80
2022/01/29 01:53:29;;;;;;;4.38;2.20;;;;;;;17.46;49.70;102674.56;4990716;28;20034;-80
2022/01/29 01:55:54;;;;;;;4.78;2.20;;;;;;;17.45;49.48;102684.13;5023212;28;20057;-80
2022/01/29 01:58:20;;;;;;;5.28;2.00;;;;;;;17.44;49.64;102679.78;5006252;28;20030;-80
2022/01/29 02:00:45;;;;;;;4.82;2.13;;;;;;;17.44;49.67;102671.97;5007076;28;20118;-81
2022/01/29 02:03:10;;;;;;;4.18;2.13;;;;;;;17.45;49.67;102659.81;4990709;28;20200;-79
2022/01/29 02:05:37;;;;;;;3.08;2.05;;;;;;;17.44;49.56;102658.94;5008197;28;20084;-80
2022/01/29 02:08:03;;;;;;;3.05;1.88;;;;;;;17.44;49.71;102658.94;4990967;28;20060;-80
2022/01/29 02:10:28;;;;;;;4.53;2.25;;;;;;;17.43;49.29;102646.75;5030947;28;20018;-80
2022/01/29 02:12:58;;;;;;;4.10;2.00;;;;;;;17.44;49.45;102647.63;5018940;28;20098;-80
2022/01/29 02:15:25;;;;;;;4.53;2.20;;;;;;;17.43;49.84;102641.56;5034906;28;20037;-81
2022/01/29 02:17:50;;;;;;;4.22;1.95;;;;;;;17.43;49.58;102646.75;5027660;28;20041;-80
2022/01/29 02:20:19;;;;;;;4.80;2.00;;;;;;;17.43;49.75;102632.88;5009908;28;20124;-80
2022/01/29 02:22:45;;;;;;;4.28;1.95;;;;;;;17.43;49.72;102636.34;5028359;28;20098;-80
2022/01/29 02:25:29;;;;;;;3.95;1.80;;;;;;;17.42;49.65;102624.22;4999858;28;20043;-81
2022/01/29 02:27:55;;;;;;;;;;;;;;;17.43;49.45;102625.06;5029441;28;20028;-80
2022/01/29 02:30:20;;;;;;;4.22;2.25;;;;;;;17.43;49.67;102625.06;5028492;28;20333;-80
2022/01/29 02:32:45;;;;;;;4.85;2.35;;;;;;;17.41;49.59;102614.63;4995237;28;20029;-80
2022/01/29 02:35:11;;;;;;;4.20;2.03;;;;;;;17.42;49.69;102613.78;5011932;28;20033;-80
2022/01/29 02:37:36;;;;;;;3.85;2.17;;;;;;;17.42;49.48;102600.78;5027874;28;20033;-81
2022/01/29 02:40:02;;;;;;;5.05;2.20;;;;;;;17.42;49.66;102602.47;5009887;28;20033;-80
2022/01/29 02:42:28;;;;;;;4.68;1.98;;;;;;;17.42;49.59;102605.09;5026025;28;20021;-79
2022/01/29 02:44:53;;;;;;;4.50;2.10;;;;;;;17.41;49.63;102595.53;5013123;28;20084;-81
2022/01/29 02:47:31;;;;;;;4.15;2.13;;;;;;;17.42;49.57;102598.19;5001649;28;20033;-81
2022/01/29 02:49:56;;;;;;;3.75;2.00;;;;;;;17.41;49.66;102582.53;5021271;28;20053;-81
2022/01/29 02:52:22;;;;;;;5.75;2.15;;;;;;;17.40;49.59;102568.66;5020999;28;20060;-81
2022/01/29 02:54:48;;;;;;;3.63;1.88;;;;;;;17.41;49.65;102564.31;5029902;28;20026;-81
2022/01/29 02:57:14;;;;;;;5.93;2.25;;;;;;;17.41;49.68;102565.19;5034744;28;20022;-80
2022/01/29 02:59:39;;;;;;;4.43;2.15;;;;;;;17.40;49.95;102563.44;5002780;28;20037;-81
2022/01/29 03:02:05;;;;;;;3.35;2.00;;;;;;;17.42;49.38;102566.06;5002298;28;20026;-81
2022/01/29 03:04:30;;;;;;;3.63;2.13;;;;;;;17.42;49.56;102566.06;5016931;28;20030;-81
2022/01/29 03:06:56;;;;;;;3.65;1.80;;;;;;;17.40;49.63;102567.78;5015288;28;20037;-80
2022/01/29 03:09:21;;;;;;;4.50;2.00;;;;;;;17.40;49.37;102560.84;5031771;28;20112;-80
2022/01/29 03:11:46;;;;;;;6.10;1.90;;;;;;;17.40;49.66;102546.97;5033480;28;20094;-80
2022/01/29 03:14:12;;;;;;;4.60;2.10;;;;;;;17.40;49.81;102550.44;4999326;28;20571;-80
2022/01/29 03:16:37;;;;;;;4.28;2.28;;;;;;;17.40;49.56;102546.97;4996985;28;20030;-80
2022/01/29 03:19:03;;;;;;;4.28;1.88;;;;;;;17.39;49.48;102538.25;4996879;28;20117;-80
2022/01/29 03:21:28;;;;;;;4.72;1.92;;;;;;;17.39;49.73;102538.25;5011988;28;20045;-80
2022/01/29 03:23:53;;;;;;;3.97;2.03;;;;;;;17.38;49.64;102541.72;5010944;28;20045;-81
2022/01/29 03:26:19;;;;;;;4.93;2.25;;;;;;;17.39;49.48;102538.25;5010827;28;20093;-80
2022/01/29 03:28:45;;;;;;;4.35;2.00;;;;;;;17.39;49.64;102540.84;4995339;28;20045;-81
2022/01/29 03:31:11;;;;;;;3.40;1.92;;;;;;;17.39;49.60;102546.06;5027802;28;20028;-81
2022/01/29 03:33:36;;;;;;;3.80;1.90;;;;;;;17.38;49.74;102538.25;5011021;28;20033;-81
2022/01/29 03:36:02;;;;;;;4.43;2.08;;;;;;;17.39;49.76;102534.78;4994536;28;20044;-81
2022/01/29 03:38:27;;;;;;;4.30;1.83;;;;;;;17.39;49.36;102534.78;5026613;28;20032;-81
2022/01/29 03:40:56;;;;;;;4.85;2.25;;;;;;;17.38;49.68;102535.63;5024214;28;20468;-82
2022/01/29 03:43:31;;;;;;;4.20;1.80;;;;;;;17.37;49.62;102521.72;5026026;28;20084;-80
2022/01/29 03:45:57;;;;;;;5.15;2.40;;;;;;;17.38;49.68;102520.03;5025417;28;20022;-81
2022/01/29 03:48:22;;;;;;;4.53;2.10;;;;;;;17.38;49.44;102509.63;5012467;28;20387;-81
2022/01/29 03:50:48;;;;;;;3.28;1.88;;;;;;;17.37;49.53;102515.66;5026500;28;20046;-80
2022/01/29 03:53:13;;;;;;;3.65;1.92;;;;;;;17.37;49.51;102507.84;4995610;28;20486;-80
2022/01/29 03:55:39;;;;;;;3.75;1.60;;;;;;;17.37;49.61;102507.84;5008656;28;20026;-80
2022/01/29 03:58:04;;;;;;;3.20;2.00;;;;;;;17.38;49.67;102507.00;4991197;28;20033;-80
2022/01/29 04:00:29;;;;;;;4.93;2.05;;;;;;;17.37;49.46;102500.03;4991860;28;20106;-80
2022/01/29 04:02:55;;;;;;;4.18;1.88;;;;;;;17.37;49.62;102494.84;5009904;28;20026;-81
2022/01/29 04:05:20;;;;;;;3.63;1.80;;;;;;;17.36;49.95;102501.78;5029197;28;20045;-81
2022/01/29 04:07:46;;;;;;;4.78;1.90;;;;;;;17.37;49.57;102505.25;4995461;28;20073;-81
2022/01/29 04:10:12;;;;;;;4.25;1.83;;;;;;;17.36;49.79;102493.09;5011178;28;20030;-81
2022/01/29 04:12:43;;;;;;;4.00;1.95;;;;;;;17.36;49.46;102503.50;5012500;28;20029;-81
2022/01/29 04:15:09;;;;;;;3.92;1.88;;;;;;;17.35;49.59;102505.22;5016773;28;20546;-81
2022/01/29 04:17:34;;;;;;;4.22;1.70;;;;;;;17.36;49.56;102509.56;5018046;28;20116;-81
2022/01/29 04:19:59;;;;;;;4.18;2.00;;;;;;;17.35;49.77;102500.00;4999396;28;20018;-81
2022/01/29 04:22:25;;;;;;;5.80;2.10;;;;;;;17.35;49.54;102492.19;5017446;28;20030;-81
2022/01/29 04:24:50;;;;;;;3.75;1.90;;;;;;;17.34;49.54;102480.06;5019396;28;20030;-81
2022/01/29 04:27:19;;;;;;;4.13;2.00;;;;;;;17.33;49.42;102475.69;5001697;28;20123;-82
2022/01/29 04:29:56;;;;;;;3.38;1.95;;;;;;;17.33;49.58;102470.47;4999642;28;20094;-81
2022/01/29 04:32:33;;;;;;;3.10;1.52;;;;;;;17.34;49.48;102477.44;5020394;28;20022;-81
2022/01/29 04:34:59;;;;;;;3.40;1.77;;;;;;;17.33;49.51;102462.66;5034594;28;20448;-81
2022/01/29 04:37:24;;;;;;;4.95;1.77;;;;;;;17.34;49.52;102468.78;5035206;28;20092;-81
2022/01/29 04:39:49;;;;;;;3.92;1.85;;;;;;;17.34;49.64;102468.78;5018897;28;20037;-81
2022/01/29 04:42:14;;;;;;;4.20;1.88;;;;;;;17.32;49.55;102471.34;5033974;28;20026;-81
2022/01/29 04:44:40;;;;;;;3.55;1.85;;;;;;;17.33;49.74;102467.88;5034830;28;20042;-81
2022/01/29 04:47:05;;;;;;;3.67;1.65;;;;;;;17.34;49.76;102469.63;5001925;28;20036;-81
2022/01/29 04:49:31;;;;;;;4.82;1.90;;;;;;;17.33;49.51;102473.06;5002395;28;20030;-81
2022/01/29 04:51:56;;;;;;;4.32;1.80;;;;;;;17.33;49.49;102461.81;5003163;28;20018;-81
2022/01/29 04:54:21;;;;;;;4.85;1.98;;;;;;;17.32;49.70;102463.53;5018562;28;20026;-81
2022/01/29 04:56:47;;;;;;;3.20;1.88;;;;;;;17.33;49.69;102460.06;5033542;28;20183;-81
2022/01/29 04:59:12;;;;;;;3.15;1.80;;;;;;;17.33;49.70;102460.06;5000671;28;20038;-80
2022/01/29 05:01:39;;;;;;;3.72;1.65;;;;;;;17.32;49.70;102457.47;5015840;28;20053;-79
2022/01/29 05:04:04;;;;;;;3.53;2.00;;;;;;;17.32;49.74;102463.53;5010358;28;20033;-80
2022/01/29 05:06:29;;;;;;;5.53;1.70;;;;;;;17.32;49.55;102460.94;5006702;28;20026;-82
2022/01/29 05:08:55;;;;;;;3.15;1.92;;;;;;;17.33;49.63;102461.81;5005794;28;20025;-81
2022/01/29 05:11:20;;;;;;;5.55;2.20;;;;;;;17.33;49.85;102460.06;5024504;28;20116;-81
2022/01/29 05:13:46;;;;;;;3.85;1.95;;;;;;;17.33;49.63;102451.38;5028681;28;20033;-82
2022/01/29 05:26:55;;;;;;;4.78;1.60;;;;;;;17.32;49.79;102453.13;5024269;28;20117;-80
2022/01/29 05:29:21;;;;;;;3.92;1.80;;;;;;;17.31;49.64;102451.38;5022910;28;20050;-80
2022/01/29 05:31:51;;;;;;;2.88;1.63;;;;;;;17.31;49.87;102446.19;5008482;28;20116;-81
2022/01/29 05:34:17;;;;;;;3.63;1.67;;;;;;;17.30;49.67;102444.41;5026093;28;20025;-81
2022/01/29 05:36:43;;;;;;;4.40;1.73;;;;;;;17.31;49.71;102445.28;5026119;28;20109;-81
2022/01/29 05:39:08;;;;;;;3.25;1.80;;;;;;;17.31;49.84;102432.28;5030733;28;20029;-81
2022/01/29 05:41:33;;;;;;;3.95;1.90;;;;;;;17.30;49.57;102434.00;5016101;28;20021;-81
2022/01/29 05:43:59;;;;;;;3.38;1.67;;;;;;;17.29;49.65;102437.47;5016576;28;20101;-81
2022/01/29 05:46:24;;;;;;;4.28;1.70;;;;;;;17.29;49.66;102440.06;5015387;28;20030;-81
2022/01/29 05:48:49;;;;;;;3.40;1.65;;;;;;;17.29;49.71;102432.28;5017668;28;20049;-82
2022/01/29 05:51:15;;;;;;;3.35;1.55;;;;;;;17.28;49.52;102435.69;5037274;28;20036;-84
2022/01/29 05:53:44;;;;;;;4.25;1.90;;;;;;;17.29;49.51;102434.88;5036397;28;20041;-84
2022/01/29 05:58:45;;;;;;;4.35;1.70;;;;;;;17.29;49.67;102434.88;5709041;23;20054;-82
2022/01/29 06:01:10;;;;;;;4.25;1.80;;;;;;;17.28;49.55;102435.69;5022331;28;20257;-80
2022/01/29 06:03:36;;;;;;;3.75;1.77;;;;;;;17.31;49.62;102429.66;5023105;28;20037;-84
2022/01/29 06:06:02;;;;;;;4.15;1.60;;;;;;;17.29;49.64;102427.06;5041490;28;20102;-84
2022/01/29 06:08:27;;;;;;;3.00;1.42;;;;;;;17.28;49.52;102422.69;5041780;28;20018;-83
2022/01/29 06:10:53;;;;;;;4.30;1.77;;;;;;;17.31;49.49;102429.66;5041429;28;20022;-83
2022/01/29 06:13:19;;;;;;;4.43;1.75;;;;;;;17.31;49.44;102429.66;5041811;28;20033;-83
2022/01/29 06:15:47;;;;;;;3.70;1.90;;;;;;;17.31;49.78;102416.66;5041521;28;20018;-83
2022/01/29 06:18:17;;;;;;;3.28;1.73;;;;;;;17.28;49.37;102420.97;5041209;28;20026;-84
2022/01/29 06:20:46;;;;;;;4.10;1.67;;;;;;;17.28;49.69;102413.16;5040786;28;20042;-84
2022/01/29 06:23:17;;;;;;;4.05;1.80;;;;;;;17.27;49.69;102411.41;5041981;28;20052;-84
2022/01/29 06:28:18;;;;;;;3.45;1.83;;;;;;;17.30;49.62;102412.31;5975211;23;20010;-82
2022/01/29 06:30:44;;;;;;;4.60;1.83;;;;;;;17.28;49.57;102409.69;5021083;28;20010;-84
2022/01/29 06:33:11;;;;;;;3.90;1.70;;;;;;;17.29;49.60;102406.25;5021503;28;20053;-84
2022/01/29 06:35:39;;;;;;;3.20;1.50;;;;;;;17.28;49.69;102396.69;5017717;28;20018;-84
2022/01/29 06:38:06;;;;;;;4.13;1.70;;;;;;;17.29;49.33;102403.66;5003273;28;20007;-84
2022/01/29 06:47:42;;;;;;;3.88;1.63;;;;;;;17.30;49.48;102397.56;5021414;28;20041;-85
2022/01/29 07:07:32;;;;;;;2.83;1.55;;;;;;;17.28;49.58;102373.25;4908574;29;20039;-82
2022/01/29 07:13:06;;;;;;;2.97;1.48;;;;;;;17.28;49.65;102352.44;4940680;29;20126;-82
2022/01/29 07:15:58;;;;;;;2.30;1.33;;;;;;;17.28;49.44;102358.50;4937613;29;20044;-82
2022/01/29 07:18:25;;;;;;;5.55;1.92;;;;;;;17.29;49.74;102367.22;4883205;29;20063;-80
2022/01/29 07:24:21;;;;;;;3.10;1.45;;;;;;;17.47;50.08;102364.03;4954945;29;20038;-82
2022/01/29 07:27:26;;;;;;;3.72;1.50;;;;;;;17.53;50.00;102358.91;4949122;28;20180;-82
2022/01/29 07:30:28;;;;;;;5.75;1.85;;;;;;;17.55;50.31;102356.31;4996578;28;20042;-84
2022/01/29 07:33:07;;;;;;;4.30;1.70;;;;;;;17.54;50.15;102345.03;4996768;28;20034;-81
2022/01/29 07:36:11;;;;;;;8.00;1.80;;;;;;;17.54;50.19;102349.38;5017916;28;20030;-83
2022/01/29 07:38:38;;;;;;;5.60;1.63;;;;;;;17.54;50.35;102354.56;4989928;28;20193;-80
2022/01/29 07:41:24;;;;;;;7.50;1.52;;;;;;;17.56;50.38;102345.94;4987372;28;20548;-81
2022/01/29 07:43:50;;;;;;;5.03;1.92;;;;;;;17.57;50.60;102344.19;5003466;28;20061;-81
2022/01/29 07:46:18;;;;;;;7.10;1.85;;;;;;;17.57;50.79;102342.50;4987916;28;20090;-81
2022/01/29 07:48:43;;;;;;;3.10;1.65;;;;;;;17.57;50.54;102345.09;4961151;28;20031;-81
2022/01/29 07:51:11;;;;;;;4.03;1.60;;;;;;;17.58;50.66;102332.94;4970872;28;20050;-81
2022/01/29 07:53:44;;;;;;;3.28;1.60;;;;;;;17.59;50.53;102345.97;4976937;28;20682;-82
2022/01/29 07:56:31;;;;;;;4.35;1.80;;;;;;;17.62;50.54;102342.56;5031683;28;20045;-82
2022/01/29 07:59:03;;;;;;;3.75;1.80;;;;;;;17.62;50.40;102342.56;5012522;28;20026;-80
2022/01/29 08:01:30;;;;;;;3.33;1.60;;;;;;;17.62;50.88;102333.00;5005153;28;20476;-81
2022/01/29 08:03:56;;;;;;;4.07;1.77;;;;;;;17.63;50.56;102339.94;5007846;28;20026;-81
2022/01/29 08:06:30;;;;;;;3.10;1.50;;;;;;;17.62;50.95;102326.94;5009280;28;20034;-82
2022/01/29 08:12:40;;;;;;;4.85;1.55;;;;;;;17.62;50.83;102316.53;5002340;28;20045;-81
2022/01/29 08:15:06;;;;;;;3.22;1.70;;;;;;;17.65;50.75;102319.16;4999393;28;20057;-80
2022/01/29 08:17:36;;;;;;;7.60;1.60;;;;;;;17.66;50.83;102323.53;5002538;28;20042;-82
2022/01/29 08:20:08;;;;;;;3.42;1.67;;;;;;;17.63;50.75;102315.66;5005043;28;20030;-81
2022/01/29 08:22:53;;;;;;;2.85;1.60;;;;;;;17.67;50.79;102315.72;5006255;28;20089;-81
2022/01/29 08:25:25;;;;;;;3.00;1.60;;;;;;;17.67;50.77;102307.91;4991356;28;20030;-82
2022/01/29 08:27:50;;;;;;;4.15;1.60;;;;;;;17.67;50.52;102313.09;5007171;28;20366;-80
2022/01/29 08:30:16;;;;;;;5.30;1.50;;;;;;;17.69;50.63;102297.53;4998503;28;20058;-79
2022/01/29 08:32:42;;;;;;;5.22;1.65;;;;;;;17.71;50.49;102320.97;4991112;28;20084;-80
2022/01/29 08:35:16;;;;;;;2.97;1.42;;;;;;;17.72;50.67;102312.31;5002454;28;20069;-81
2022/01/29 08:37:42;;;;;;;3.72;1.40;;;;;;;17.72;50.73;102302.75;5022473;28;20040;-79
2022/01/29 08:40:09;;;;;;;5.35;1.65;;;;;;;17.76;50.95;102299.34;5016786;28;20096;-79
2022/01/29 08:42:34;;;;;;;5.18;1.88;;;;;;;17.81;50.40;102282.06;5000234;28;20045;-80
2022/01/29 08:45:01;;;;;;;7.53;1.60;;;;;;;17.85;50.58;102290.81;5028088;28;20064;-80
2022/01/29 08:47:26;;;;;;;3.88;1.50;;;;;;;17.85;50.63;102283.84;5033299;28;20030;-80
2022/01/29 08:49:52;;;;;;;3.72;1.52;;;;;;;17.88;50.45;102275.25;4995641;28;20026;-79
2022/01/29 08:52:17;;;;;;;5.15;1.80;;;;;;;17.91;50.60;102269.19;5006061;28;20480;-79
2022/01/29 08:54:43;;;;;;;6.57;1.90;;;;;;;17.93;51.41;102283.09;4988693;28;20112;-80
2022/01/29 08:57:08;;;;;;;11.95;2.53;;;;;;;17.94;52.25;102280.50;5003931;28;20049;-80
2022/01/29 08:59:33;;;;;;;12.35;2.78;;;;;;;17.92;53.10;102274.41;4989452;28;20034;-80
2022/01/29 09:05:22;;;;;;;13.43;2.70;;;;;;;17.81;56.12;102269.06;5036142;28;20053;-79
2022/01/29 09:07:48;;;;;;;13.55;2.50;;;;;;;17.64;57.53;102270.56;5024321;28;20061;-79
2022/01/29 09:10:14;;;;;;;10.60;2.40;;;;;;;17.54;58.41;102255.66;5020561;28;20026;-79
2022/01/29 09:12:41;;;;;;;11.68;2.00;;;;;;;17.43;58.17;102266.81;5009318;28;20030;-81
2022/01/29 09:15:07;;;;;;;14.65;4.25;;;;;;;17.43;59.44;102259.00;5028969;28;20017;-79
2022/01/29 09:17:33;;;;;;;11.80;4.10;;;;;;;17.40;56.44;102245.09;5002060;28;20044;-78
2022/01/29 09:19:59;;;;;;;15.10;3.90;;;;;;;17.34;56.34;102250.19;5017900;28;20476;-78
2022/01/29 09:22:24;;;;;;;12.20;3.90;;;;;;;17.31;56.45;102251.03;5001143;28;20076;-77
2022/01/29 09:24:50;;;;;;;12.02;3.45;;;;;;;17.37;57.34;102256.31;5017581;28;20065;-77
2022/01/29 09:27:15;;;;;;;16.90;3.28;;;;;;;17.43;57.55;102243.38;4984631;28;20076;-77
2022/01/29 09:29:41;;;;;;;12.70;3.45;;;;;;;17.40;57.15;102245.09;5003252;28;20064;-80
2022/01/29 09:32:11;;;;;;;8.15;2.90;;;;;;;17.30;57.71;102230.19;5020117;28;20057;-78
2022/01/29 09:34:37;;;;;;;15.00;2.63;;;;;;;17.25;57.34;102244.00;5018827;28;20038;-78
2022/01/29 09:37:02;;;;;;;8.27;2.88;;;;;;;17.25;57.71;102237.94;5001290;28;20369;-78
2022/01/29 09:39:28;;;;;;;7.88;2.83;;;;;;;17.27;58.90;102242.31;4986104;28;20034;-78
2022/01/29 09:41:54;;;;;;;7.45;2.80;;;;;;;17.26;58.27;102224.06;5002128;28;20156;-79
2022/01/29 09:44:21;;;;;;;9.10;2.83;;;;;;;17.24;57.28;102212.75;5018834;28;20018;-77
2022/01/29 09:46:50;;;;;;;8.80;2.67;;;;;;;17.21;57.31;102198.00;5019476;28;20038;-78
2022/01/29 09:49:17;;;;;;;6.50;2.58;;;;;;;17.20;57.55;102198.84;5023150;28;20037;-78
2022/01/29 09:51:43;;;;;;;9.93;2.90;;;;;;;17.18;57.70;102195.34;5007223;28;20030;-78
2022/01/29 09:54:09;;;;;;;6.45;2.83;;;;;;;17.22;57.71;102212.75;5021985;28;20108;-78
2022/01/29 09:56:34;;;;;;;7.72;2.83;;;;;;;17.22;58.62;102214.47;4984540;28;20049;-78
2022/01/29 09:59:01;;;;;;;7.05;2.33;;;;;;;17.22;59.38;102211.84;4998366;28;20029;-78
2022/01/29 10:01:29;;;;;;;6.43;2.50;;;;;;;17.22;57.53;102204.94;5016365;28;20018;-78
2022/01/29 10:04:04;;;;;;;7.25;2.20;;;;;;;17.16;57.77;102204.88;4983035;28;20022;-78
2022/01/29 10:06:30;;;;;;;9.95;2.60;;;;;;;17.16;58.62;102211.75;5014667;28;20068;-78
2022/01/29 10:08:55;;;;;;;9.70;2.15;;;;;;;17.13;58.03;102212.59;4997989;28;20030;-78
2022/01/29 10:11:23;;;;;;;9.05;2.60;;;;;;;17.11;57.97;102210.84;5015566;28;20464;-77
2022/01/29 10:13:50;;;;;;;6.40;2.78;;;;;;;17.10;58.72;102214.31;5014514;28;20029;-78
2022/01/29 10:16:25;;;;;;;6.45;2.53;;;;;;;17.10;58.28;102209.97;5016063;28;20026;-77
2022/01/29 10:19:32;;;;;;;6.82;2.30;;;;;;;17.14;57.58;102205.69;5013660;28;20029;-78
2022/01/29 10:21:57;;;;;;;7.43;2.63;;;;;;;17.17;57.65;102216.13;4959209;28;20046;-78
2022/01/29 10:24:23;;;;;;;9.75;2.70;;;;;;;17.15;57.91;102191.81;5013968;28;20045;-77
2022/01/29 10:26:50;;;;;;;4.55;2.08;;;;;;;17.14;56.76;102175.34;4986188;28;20038;-77
2022/01/29 10:29:23;;;;;;;6.63;2.38;;;;;;;17.18;57.29;102177.16;5016986;28;20026;-77
2022/01/29 10:31:52;;;;;;;8.18;2.30;;;;;;;17.19;57.24;102194.50;5016892;28;20026;-78
2022/01/29 10:34:23;;;;;;;5.65;2.33;;;;;;;17.18;57.33;102208.38;5018012;28;20051;-78
2022/01/29 10:37:12;;;;;;;6.45;2.40;;;;;;;17.21;56.98;102204.94;5034965;28;20036;-78
2022/01/29 10:39:38;;;;;;;6.20;2.13;;;;;;;17.26;57.75;102203.25;5019300;28;20017;-77
2022/01/29 10:42:17;;;;;;;6.78;2.30;;;;;;;17.24;57.40;102191.94;5001857;28;20072;-78
2022/01/29 10:44:46;;;;;;;6.68;2.50;;;;;;;17.20;58.04;102188.44;5022456;28;20029;-78
2022/01/29 10:47:14;;;;;;;8.60;2.72;;;;;;;17.20;57.40;102185.84;5021506;28;20053;-78
2022/01/29 10:49:50;;;;;;;4.72;2.00;;;;;;;17.18;57.66;102171.94;5038764;28;20056;-78
2022/01/29 10:52:17;;;;;;;5.20;2.38;;;;;;;17.18;57.93;102168.44;5020300;28;20033;-78
2022/01/29 10:54:46;;;;;;;7.40;2.05;;;;;;;17.16;57.77;102158.03;5020638;28;20063;-78
2022/01/29 10:57:15;;;;;;;8.35;2.38;;;;;;;17.19;58.15;102168.47;5037904;28;20021;-78
2022/01/29 10:59:52;;;;;;;6.88;2.25;;;;;;;17.23;57.73;102149.44;5039866;28;20049;-78
2022/01/29 11:02:19;;;;;;;3.97;1.98;;;;;;;17.22;57.70;102158.13;5040439;28;20025;-78
2022/01/29 11:04:48;;;;;;;4.57;1.92;;;;;;;17.22;57.53;102152.91;5007410;28;20025;-78
2022/01/29 11:07:23;;;;;;;7.90;2.28;;;;;;;17.21;57.54;102156.38;5008049;28;20384;-78
2022/01/29 11:09:50;;;;;;;5.18;1.85;;;;;;;17.21;58.51;102153.75;5008633;28;20032;-78
2022/01/29 11:12:21;;;;;;;5.82;2.25;;;;;;;17.22;58.35;102134.72;5042014;28;20140;-78
2022/01/29 11:14:55;;;;;;;6.85;2.17;;;;;;;17.22;57.37;102132.13;5024175;28;20028;-78
2022/01/29 11:17:23;;;;;;;4.70;1.83;;;;;;;17.21;57.59;102130.34;5029396;28;20132;-78
2022/01/29 11:19:49;;;;;;;5.68;2.00;;;;;;;17.21;58.35;102132.94;5013480;28;20029;-78
2022/01/29 11:22:20;;;;;;;4.72;2.10;;;;;;;17.22;58.27;102133.81;5028290;28;20113;-78
2022/01/29 11:24:48;;;;;;;4.90;1.90;;;;;;;17.24;57.24;102145.97;5026830;28;20163;-78
2022/01/29 11:27:20;;;;;;;4.25;1.98;;;;;;;17.28;57.60;102145.16;5044203;28;20056;-78
2022/01/29 11:29:59;;;;;;;5.25;2.05;;;;;;;17.27;57.51;102129.56;5026330;28;20031;-78
2022/01/29 11:32:34;;;;;;;7.60;2.20;;;;;;;17.26;57.79;102140.81;5026503;28;20118;-77
2022/01/29 11:35:02;;;;;;;4.88;1.88;;;;;;;17.26;57.79;102139.06;5027251;28;20037;-78
2022/01/29 11:37:48;;;;;;;5.00;2.35;;;;;;;17.28;56.96;102139.97;5025314;28;20029;-78
2022/01/29 11:40:38;;;;;;;6.70;2.17;;;;;;;17.27;57.44;102129.56;5022592;28;20040;-78
2022/01/29 11:43:14;;;;;;;4.20;1.83;;;;;;;17.31;57.15;102122.66;5024682;28;20414;-78
2022/01/29 11:45:53;;;;;;;4.68;1.83;;;;;;;17.32;56.90;102117.47;5025687;28;20021;-78
2022/01/29 11:48:33;;;;;;;6.30;2.30;;;;;;;17.35;56.81;102101.88;5022938;28;20108;-78
2022/01/29 11:51:10;;;;;;;5.55;1.95;;;;;;;17.34;56.55;102101.88;5023014;28;20037;-78
2022/01/29 11:53:44;;;;;;;13.45;1.80;;;;;;;17.36;56.38;102092.38;5024692;28;20034;-78
2022/01/29 11:56:35;;;;;;;5.18;2.03;;;;;;;17.37;56.60;102086.31;5023372;28;20494;-78
2022/01/29 11:59:23;;;;;;;6.20;2.00;;;;;;;17.37;56.31;102092.38;5025272;28;20025;-78
2022/01/29 12:01:50;;;;;;;4.32;1.90;;;;;;;17.38;55.91;102088.94;5009440;28;20029;-78
2022/01/29 12:04:16;;;;;;;5.50;2.20;;;;;;;17.42;55.88;102090.72;5042558;28;20025;-78
2022/01/29 12:07:20;;;;;;;4.43;1.65;;;;;;;17.43;55.68;102108.06;5007402;28;20120;-77
2022/01/29 12:09:47;;;;;;;4.65;1.55;;;;;;;17.42;55.71;102089.81;5023072;28;20022;-77
2022/01/29 12:12:19;;;;;;;4.40;1.70;;;;;;;17.41;55.86;102078.53;5024764;28;20037;-78
2022/01/29 12:14:50;;;;;;;6.82;2.03;;;;;;;17.38;55.85;102065.50;5023300;28;20076;-77
2022/01/29 12:17:41;;;;;;;5.68;2.38;;;;;;;17.40;56.26;102092.41;5022774;28;20021;-78
2022/01/29 12:20:09;;;;;;;4.35;2.10;;;;;;;17.38;56.08;102088.94;5022984;28;20106;-78
2022/01/29 12:22:36;;;;;;;6.22;2.00;;;;;;;17.41;55.83;102088.94;5022505;28;20090;-78
2022/01/29 12:25:05;;;;;;;4.93;1.77;;;;;;;17.40;55.98;102071.59;5024056;28;20060;-78